createdAt,value
2023-03-01T00:00:32.743Z,1.70
2023-03-01T00:05:36.525Z,1.70
2023-03-01T00:10:42.299Z,1.60
2023-03-01T00:15:44.830Z,1.70
2023-03-01T00:20:53.790Z,1.70
2023-03-01T00:25:56.435Z,1.60
2023-03-01T00:30:58.772Z,1.70
2023-03-01T00:36:03.145Z,1.70
2023-03-01T00:41:08.580Z,1.70
2023-03-01T00:46:13.756Z,1.60
2023-03-01T00:51:20.647Z,1.60
2023-03-01T00:56:23.757Z,1.60
2023-03-01T01:01:31.855Z,1.50
2023-03-01T01:06:36.918Z,1.60
2023-03-01T01:11:39.376Z,1.60
2023-03-01T01:16:42.016Z,1.50
2023-03-01T01:21:46.082Z,1.50
2023-03-01T01:26:49.047Z,1.60
2023-03-01T01:31:51.408Z,1.60
2023-03-01T01:36:56.187Z,1.60
2023-03-01T01:41:58.622Z,1.60
2023-03-01T01:47:05.913Z,1.60
2023-03-01T01:52:13.781Z,1.60
2023-03-01T01:57:20.365Z,1.60
2023-03-01T02:02:23.416Z,1.50
2023-03-01T02:07:28.373Z,1.50
2023-03-01T02:12:31.531Z,1.50
2023-03-01T02:17:35.926Z,1.40
2023-03-01T02:22:41.111Z,1.50
2023-03-01T02:27:54.309Z,1.70
2023-03-01T02:33:05.726Z,1.70
2023-03-01T02:38:10.960Z,1.70
2023-03-01T02:43:14.403Z,1.80
2023-03-01T02:48:18.141Z,1.70
2023-03-01T02:53:28.117Z,1.70
2023-03-01T02:58:30.350Z,1.70
2023-03-01T03:03:34.102Z,1.70
2023-03-01T03:08:36.187Z,1.60
2023-03-01T03:13:39.445Z,1.60
2023-03-01T03:18:43.524Z,1.60
2023-03-01T03:23:45.902Z,1.50
2023-03-01T03:28:48.255Z,1.40
2023-03-01T03:33:52.111Z,1.40
2023-03-01T03:38:54.194Z,1.40
2023-03-01T03:43:56.204Z,1.40
2023-03-01T03:49:00.519Z,1.40
2023-03-01T03:54:02.538Z,1.40
2023-03-01T03:59:04.910Z,1.40
2023-03-01T04:04:08.974Z,1.30
2023-03-01T04:09:10.951Z,1.30
2023-03-01T04:14:13.731Z,1.30
2023-03-01T04:19:17.693Z,1.30
2023-03-01T04:24:19.963Z,1.40
2023-03-01T04:29:21.789Z,1.50
2023-03-01T04:34:25.184Z,1.40
2023-03-01T04:39:27.562Z,1.30
2023-03-01T04:44:29.939Z,1.30
2023-03-01T04:49:33.290Z,1.30
2023-03-01T04:54:36.193Z,1.40
2023-03-01T04:59:38.606Z,1.40
2023-03-01T05:04:41.910Z,1.40
2023-03-01T05:09:43.950Z,1.40
2023-03-01T05:14:46.035Z,1.50
2023-03-01T05:19:49.852Z,1.40
2023-03-01T05:24:52.046Z,1.40
2023-03-01T05:29:55.772Z,1.40
2023-03-01T05:34:59.502Z,1.30
2023-03-01T05:40:01.528Z,1.30
2023-03-01T05:45:03.632Z,1.30
2023-03-01T05:50:08.629Z,1.30
2023-03-01T05:55:11.508Z,1.30
2023-03-01T06:00:15.240Z,1.20
2023-03-01T06:05:18.851Z,1.20
2023-03-01T06:10:22.346Z,1.20
2023-03-01T06:15:25.178Z,1.20
2023-03-01T06:20:30.971Z,1.20
2023-03-01T06:25:33.225Z,1.20
2023-03-01T06:30:35.216Z,1.20
2023-03-01T06:35:39.017Z,1.30
2023-03-01T06:40:41.418Z,1.30
2023-03-01T06:45:44.222Z,1.40
2023-03-01T06:50:48.289Z,1.40
2023-03-01T06:55:55.872Z,1.40
2023-03-01T07:00:58.569Z,1.50
2023-03-01T07:06:02.348Z,1.50
2023-03-01T07:11:05.218Z,1.60
2023-03-01T07:16:08.257Z,1.60
2023-03-01T07:21:14.549Z,1.70
2023-03-01T07:26:16.986Z,1.70
2023-03-01T07:31:19.347Z,1.80
2023-03-01T07:36:22.932Z,1.80
2023-03-01T07:41:25.284Z,1.80
2023-03-01T07:46:27.435Z,1.90
2023-03-01T07:51:31.240Z,2.00
2023-03-01T07:56:33.889Z,2.00
2023-03-01T08:01:36.218Z,2.00
2023-03-01T08:06:39.937Z,2.00
2023-03-01T08:11:42.221Z,2.10
2023-03-01T08:16:44.651Z,2.20
2023-03-01T08:21:48.266Z,2.30
2023-03-01T08:26:50.250Z,2.30
2023-03-01T08:31:53.789Z,2.40
2023-03-01T08:36:57.573Z,2.50
2023-03-01T08:42:00.003Z,2.60
2023-03-01T08:47:03.610Z,2.60
2023-03-01T08:52:07.356Z,2.70
2023-03-01T08:57:10.813Z,2.80
2023-03-01T09:02:15.565Z,2.90
2023-03-01T09:07:19.199Z,3.10
2023-03-01T09:12:21.117Z,3.20
2023-03-01T09:17:23.763Z,3.40
2023-03-01T09:22:27.351Z,3.60
2023-03-01T09:27:29.823Z,3.70
2023-03-01T09:32:33.483Z,3.70
2023-03-01T09:37:38.559Z,3.80
2023-03-01T09:42:51.168Z,3.90
2023-03-01T09:47:53.927Z,4.20
2023-03-01T09:53:04.156Z,4.10
2023-03-01T09:58:29.739Z,4.10
2023-03-01T10:03:39.251Z,4.90
2023-03-01T10:08:48.842Z,7.50
2023-03-01T10:13:57.738Z,7.50
2023-03-01T10:19:04.521Z,6.80
2023-03-01T10:24:15.701Z,6.20
2023-03-01T10:29:18.584Z,6.20
2023-03-01T10:34:23.210Z,6.10
2023-03-01T10:39:28.120Z,6.20
2023-03-01T10:44:47.926Z,6.50
2023-03-01T10:50:01.855Z,7.40
2023-03-01T10:55:25.720Z,7.30
2023-03-01T11:00:29.066Z,7.00
2023-03-01T11:05:34.757Z,7.00
2023-03-01T11:10:39.028Z,7.10
2023-03-01T11:15:41.900Z,7.40
2023-03-01T11:20:44.536Z,7.40
2023-03-01T11:25:53.499Z,7.20
2023-03-01T11:31:08.295Z,7.20
2023-03-01T11:36:20.078Z,7.00
2023-03-01T11:41:28.904Z,7.20
2023-03-01T11:46:52.166Z,7.40
2023-03-01T11:52:00.987Z,7.50
2023-03-01T11:57:15.343Z,9.20
2023-03-01T12:03:00.012Z,9.20
2023-03-01T12:08:10.516Z,9.00
2023-03-01T12:13:47.611Z,11.20
2023-03-01T12:19:10.880Z,12.00
2023-03-01T12:24:36.001Z,11.80
2023-03-01T12:29:47.287Z,12.30
2023-03-01T12:35:13.815Z,12.90
2023-03-01T12:40:38.267Z,13.10
2023-03-01T12:46:00.024Z,12.00
2023-03-01T12:51:05.614Z,9.90
2023-03-01T12:56:13.224Z,8.60
2023-03-01T13:01:25.743Z,8.20
2023-03-01T13:06:43.468Z,7.90
2023-03-01T13:11:46.319Z,7.70
2023-03-01T13:16:51.296Z,7.80
2023-03-01T13:21:55.858Z,7.30
2023-03-01T13:27:26.446Z,6.80
2023-03-01T13:32:48.871Z,6.70
2023-03-01T13:37:51.380Z,6.50
2023-03-01T13:43:04.704Z,6.40
2023-03-01T13:48:14.281Z,6.70
2023-03-01T13:53:20.542Z,6.70
2023-03-01T13:58:26.265Z,6.90
2023-03-01T14:03:31.983Z,6.50
2023-03-01T14:08:35.051Z,6.40
2023-03-01T14:13:51.624Z,6.60
2023-03-01T14:19:03.900Z,6.70
2023-03-01T14:24:06.648Z,6.40
2023-03-01T14:29:08.887Z,5.90
2023-03-01T14:34:22.915Z,5.80
2023-03-01T14:39:28.146Z,5.60
2023-03-01T14:44:31.124Z,5.50
2023-03-01T14:49:38.220Z,5.30
2023-03-01T14:54:43.717Z,5.30
2023-03-01T14:59:46.590Z,5.20
2023-03-01T15:04:52.621Z,5.10
2023-03-01T15:09:55.143Z,5.10
2023-03-01T15:15:04.169Z,4.80
2023-03-01T15:20:19.695Z,4.70
2023-03-01T15:25:24.155Z,4.70
2023-03-01T15:30:29.745Z,4.60
2023-03-01T15:35:46.813Z,4.50
2023-03-01T15:40:53.127Z,4.40
2023-03-01T15:45:59.578Z,4.30
2023-03-01T15:51:03.764Z,4.10
2023-03-01T15:56:08.536Z,4.10
2023-03-01T16:01:15.378Z,4.10
2023-03-01T16:06:19.204Z,4.00
2023-03-01T16:11:22.640Z,4.00
2023-03-01T16:16:25.611Z,4.00
2023-03-01T16:21:30.277Z,4.00
2023-03-01T16:26:32.780Z,3.90
2023-03-01T16:31:35.580Z,3.90
2023-03-01T16:36:39.852Z,3.80
2023-03-01T16:41:42.827Z,3.70
2023-03-01T16:46:45.449Z,3.70
2023-03-01T16:51:51.402Z,3.60
2023-03-01T16:56:54.075Z,3.60
2023-03-01T17:01:57.980Z,3.50
2023-03-01T17:07:02.343Z,3.40
2023-03-01T17:12:09.094Z,3.30
2023-03-01T17:17:11.749Z,3.30
2023-03-01T17:22:16.543Z,3.30
2023-03-01T17:27:19.558Z,3.30
2023-03-01T17:32:23.560Z,3.30
2023-03-01T17:37:30.276Z,3.30
2023-03-01T17:42:32.789Z,3.30
2023-03-01T17:47:35.842Z,3.30
2023-03-01T17:52:41.714Z,3.40
2023-03-01T17:57:44.498Z,3.40
2023-03-01T18:02:47.439Z,3.40
2023-03-01T18:07:53.055Z,3.30
2023-03-01T18:12:58.502Z,3.30
2023-03-01T18:18:01.930Z,3.20
2023-03-01T18:23:06.949Z,3.20
2023-03-01T18:28:10.107Z,3.20
2023-03-01T18:33:13.494Z,3.30
2023-03-01T18:38:19.305Z,3.30
2023-03-01T18:43:22.898Z,3.30
2023-03-01T18:48:27.814Z,3.30
2023-03-01T18:53:33.469Z,3.20
2023-03-01T18:58:37.720Z,3.30
2023-03-01T19:03:41.348Z,3.30
2023-03-01T19:08:46.111Z,3.30
2023-03-01T19:13:52.582Z,3.20
2023-03-01T19:19:00.115Z,3.30
2023-03-01T19:24:05.229Z,3.20
2023-03-01T19:29:09.069Z,3.20
2023-03-01T19:34:14.353Z,3.20
2023-03-01T19:39:22.604Z,3.20
2023-03-01T19:44:29.140Z,3.20
2023-03-01T19:49:33.812Z,3.10
2023-03-01T19:55:31.268Z,3.20
2023-03-01T20:00:37.708Z,3.10
2023-03-01T20:05:46.323Z,3.00
2023-03-01T20:10:50.987Z,3.00
2023-03-01T20:15:54.547Z,2.90
2023-03-01T20:21:00.947Z,2.90
2023-03-01T20:26:08.206Z,3.10
2023-03-01T20:31:19.009Z,3.00
2023-03-01T20:36:24.083Z,3.00
2023-03-01T20:41:30.724Z,2.90
2023-03-01T20:46:35.332Z,2.90
2023-03-01T20:51:38.789Z,2.90
2023-03-01T20:56:44.018Z,3.00
2023-03-01T21:01:47.598Z,3.00
2023-03-01T21:06:51.648Z,2.80
2023-03-01T21:11:59.809Z,2.70
2023-03-01T21:17:03.353Z,2.70
2023-03-01T21:22:06.278Z,2.70
2023-03-01T21:27:10.402Z,2.60
2023-03-01T21:32:13.665Z,2.60
2023-03-01T21:37:17.218Z,2.60
2023-03-01T21:42:21.560Z,2.60
2023-03-01T21:47:23.749Z,2.60
2023-03-01T21:52:26.391Z,2.60
2023-03-01T21:57:31.015Z,2.60
2023-03-01T22:02:33.795Z,2.60
2023-03-01T22:07:38.755Z,2.60
2023-03-01T22:12:42.474Z,2.60
2023-03-01T22:17:51.340Z,2.60
2023-03-01T22:22:54.636Z,2.70
2023-03-01T22:27:59.481Z,2.70
2023-03-01T22:33:01.530Z,2.70
2023-03-01T22:38:07.291Z,2.70
2023-03-01T22:43:10.997Z,2.70
2023-03-01T22:48:23.015Z,2.80
2023-03-01T22:54:00.389Z,2.90
2023-03-01T22:59:23.673Z,2.90
2023-03-01T23:04:26.318Z,3.00
2023-03-01T23:09:30.967Z,2.90
2023-03-01T23:14:35.123Z,2.90
2023-03-01T23:19:37.264Z,2.80
2023-03-01T23:24:40.004Z,2.80
2023-03-01T23:29:44.232Z,2.80
2023-03-01T23:34:46.660Z,2.70
2023-03-01T23:39:51.204Z,2.70
2023-03-01T23:44:54.607Z,2.60
2023-03-01T23:49:57.497Z,2.50
2023-03-01T23:54:59.764Z,2.50
